This is the latest recevied weather packets stored in our database for station/object DL7HMX-13. If no packets are shown the sender has not sent any weather packets the latest 1 day(s).
| Time | Temp. | Humidity | Pressure | Rain* | Wind** | Luminosity | Snow |
|---|---|---|---|---|---|---|---|
| 1777992630 | 27.78° C | 30% | 1003.9 hPa | 0 mm | 0.89 m/s, 160° | 297 W/m² | - |
| 1777992019 | 27.78° C | 30% | 1004 hPa | 0 mm | 1.34 m/s, 282° | 408 W/m² | - |
| 1777991419 | 27.78° C | 30% | 1004 hPa | 0 mm | 0.45 m/s, 52° | 480 W/m² | - |
| 1777990822 | 28.33° C | 30% | 1004.2 hPa | 0 mm | 0.45 m/s, 84° | 406 W/m² | - |
| 1777990225 | 28.89° C | 30% | 1004.4 hPa | 0 mm | 0.45 m/s, 64° | 517 W/m² | - |
| 1777989628 | 26.67° C | 31% | 1004.5 hPa | 0 mm | 0.89 m/s, 183° | 528 W/m² | - |
| 1777989031 | 27.78° C | 32% | 1004.6 hPa | 0 mm | 0.45 m/s, 81° | 505 W/m² | - |
| 1777988418 | 27.78° C | 31% | 1004.7 hPa | 0 mm | 0.45 m/s, 73° | 586 W/m² | - |
| 1777987832 | 27.22° C | 32% | 1004.7 hPa | 0 mm | 0 m/s | 579 W/m² | - |
| 1777987223 | 27.22° C | 32% | 1004.8 hPa | 0 mm | 0.45 m/s, 75° | 612 W/m² | - |
| 1777986626 | 26.67° C | 32% | 1004.9 hPa | 0 mm | 0.45 m/s, 69° | 613 W/m² | - |
| 1777986029 | 27.78° C | 32% | 1005 hPa | 0 mm | 0.89 m/s, 351° | 613 W/m² | - |
| 1777985416 | 27.22° C | 32% | 1005.2 hPa | 0 mm | 0.45 m/s, 67° | 644 W/m² | - |
| 1777984819 | 27.78° C | 32% | 1005.5 hPa | 0 mm | 0.89 m/s, 49° | 652 W/m² | - |
| 1777984221 | 27.22° C | 33% | 1005.6 hPa | 0 mm | 0.45 m/s, 71° | 616 W/m² | - |
| 1777983624 | 26.11° C | 38% | 1005.8 hPa | 0 mm | 0.89 m/s, 55° | 622 W/m² | - |
| 1777983027 | 26.67° C | 38% | 1006 hPa | 0 mm | 0.45 m/s, 66° | 612 W/m² | - |
| 1777982430 | 26.11° C | 39% | 1006.1 hPa | 0 mm | 0.45 m/s, 91° | 717 W/m² | - |
| 1777981818 | 25.56° C | 40% | 1006.2 hPa | 0 mm | 0.89 m/s, 248° | 623 W/m² | - |
| 1777981220 | 25° C | 43% | 1006.3 hPa | 0 mm | 1.34 m/s, 217° | 619 W/m² | - |
| 1777980623 | 25° C | 44% | 1006.5 hPa | 0 mm | 0.89 m/s, 172° | 619 W/m² | - |
| 1777980026 | 24.44° C | 48% | 1006.5 hPa | 0 mm | 0.45 m/s, 82° | 459 W/m² | - |
| 1777979429 | 23.89° C | 48% | 1006.7 hPa | 0 mm | 0.45 m/s, 25° | 381 W/m² | - |
| 1777978832 | 24.44° C | 48% | 1006.6 hPa | 0 mm | 0.89 m/s, 58° | 343 W/m² | - |
| 1777978218 | 23.89° C | 48% | 1006.8 hPa | 0 mm | 1.34 m/s, 45° | 559 W/m² | - |
* Rain latest hour (hover to see other rain measurements)
** Current wind speed in m/s (hover to see current wind gust speed)